createdAt,value
2023-03-06T00:00:48.508Z,6.82
2023-03-06T00:03:15.303Z,7.53
2023-03-06T00:05:42.177Z,6.15
2023-03-06T00:08:08.933Z,6.32
2023-03-06T00:10:35.591Z,6.68
2023-03-06T00:13:04.807Z,5.93
2023-03-06T00:15:31.799Z,6.47
2023-03-06T00:17:58.995Z,7.47
2023-03-06T00:20:26.901Z,6.45
2023-03-06T00:22:55.869Z,7.00
2023-03-06T00:25:22.696Z,5.85
2023-03-06T00:27:49.801Z,5.95
2023-03-06T00:30:19.376Z,5.47
2023-03-06T00:32:45.981Z,6.25
2023-03-06T00:35:13.139Z,6.00
2023-03-06T00:37:40.640Z,6.05
2023-03-06T00:40:13.546Z,6.28
2023-03-06T00:42:40.191Z,6.63
2023-03-06T00:45:07.356Z,6.10
2023-03-06T00:47:33.997Z,6.65
2023-03-06T00:50:00.569Z,7.10
2023-03-06T00:52:27.181Z,7.10
2023-03-06T00:54:53.733Z,6.88
2023-03-06T00:57:20.247Z,6.68
2023-03-06T00:59:46.838Z,7.20
2023-03-06T01:02:13.628Z,7.55
2023-03-06T01:04:40.264Z,7.53
2023-03-06T01:07:06.798Z,7.80
2023-03-06T01:09:33.427Z,8.27
2023-03-06T01:12:00.448Z,8.10
2023-03-06T01:14:27.835Z,8.25
2023-03-06T01:16:54.526Z,8.07
2023-03-06T01:19:21.204Z,7.82
2023-03-06T01:21:47.740Z,5.03
2023-03-06T01:24:14.300Z,4.80
2023-03-06T01:26:40.827Z,8.65
2023-03-06T01:29:07.425Z,9.45
2023-03-06T01:31:34.265Z,8.50
2023-03-06T01:34:00.857Z,8.88
2023-03-06T01:36:27.344Z,10.32
2023-03-06T01:38:53.870Z,9.20
2023-03-06T01:41:21.491Z,12.45
2023-03-06T01:43:48.542Z,9.95
2023-03-06T01:46:42.153Z,11.30
2023-03-06T01:49:36.609Z,10.48
2023-03-06T01:52:18.265Z,10.55
2023-03-06T01:54:59.248Z,10.57
2023-03-06T01:57:30.483Z,9.75
2023-03-06T02:00:06.963Z,9.95
2023-03-06T02:02:42.098Z,11.25
2023-03-06T02:05:08.932Z,7.88
2023-03-06T02:07:37.249Z,13.15
2023-03-06T02:10:05.811Z,10.30
2023-03-06T02:12:32.740Z,12.23
2023-03-06T02:14:59.585Z,11.18
2023-03-06T02:17:27.790Z,12.20
2023-03-06T02:20:09.609Z,11.07
2023-03-06T02:23:05.437Z,11.30
2023-03-06T02:25:40.205Z,12.38
2023-03-06T02:28:09.919Z,11.18
2023-03-06T02:30:37.564Z,10.98
2023-03-06T02:33:05.337Z,11.90
2023-03-06T02:35:35.672Z,9.15
2023-03-06T02:38:13.536Z,11.25
2023-03-06T02:40:43.796Z,12.90
2023-03-06T02:43:13.067Z,9.75
2023-03-06T02:45:45.179Z,13.02
2023-03-06T02:48:13.290Z,13.07
2023-03-06T02:50:40.769Z,6.43
2023-03-06T02:53:08.286Z,8.40
2023-03-06T02:55:35.410Z,13.02
2023-03-06T02:58:02.281Z,10.75
2023-03-06T03:00:30.385Z,10.75
2023-03-06T03:02:57.402Z,13.43
2023-03-06T03:05:24.456Z,12.10
2023-03-06T03:07:57.569Z,12.95
2023-03-06T03:10:24.846Z,11.55
2023-03-06T03:12:51.628Z,11.98
2023-03-06T03:15:19.412Z,12.10
2023-03-06T03:17:45.958Z,8.23
2023-03-06T03:20:16.040Z,12.45
2023-03-06T03:22:43.008Z,11.65
2023-03-06T03:25:09.958Z,12.25
2023-03-06T03:27:36.728Z,12.40
2023-03-06T03:30:04.685Z,8.77
2023-03-06T03:32:31.326Z,11.25
2023-03-06T03:34:58.309Z,13.00
2023-03-06T03:37:25.903Z,11.98
2023-03-06T03:39:53.589Z,13.65
2023-03-06T03:42:20.175Z,13.63
2023-03-06T03:44:46.790Z,13.50
2023-03-06T03:47:13.612Z,11.88
2023-03-06T03:49:40.954Z,12.02
2023-03-06T03:52:07.728Z,12.55
2023-03-06T03:54:35.895Z,12.55
2023-03-06T03:57:02.430Z,12.93
2023-03-06T03:59:33.102Z,7.90
2023-03-06T04:02:10.768Z,11.88
2023-03-06T04:04:46.183Z,11.60
2023-03-06T04:07:13.291Z,11.93
2023-03-06T04:09:40.340Z,13.48
2023-03-06T04:12:07.944Z,14.02
2023-03-06T04:14:36.381Z,12.27
2023-03-06T04:17:03.558Z,9.27
2023-03-06T04:19:30.207Z,14.52
2023-03-06T04:21:57.548Z,11.70
2023-03-06T04:24:24.937Z,13.68
2023-03-06T04:26:52.261Z,6.22
2023-03-06T04:29:18.785Z,7.80
2023-03-06T04:31:45.751Z,13.43
2023-03-06T04:34:12.626Z,14.23
2023-03-06T04:36:44.984Z,12.98
2023-03-06T04:39:13.740Z,15.55
2023-03-06T04:41:41.421Z,14.40
2023-03-06T04:44:08.588Z,16.15
2023-03-06T04:46:35.885Z,14.75
2023-03-06T04:49:02.406Z,8.88
2023-03-06T04:51:29.472Z,16.05
2023-03-06T04:53:56.093Z,17.63
2023-03-06T04:56:23.242Z,16.17
2023-03-06T04:58:49.814Z,17.60
2023-03-06T05:01:16.386Z,18.67
2023-03-06T05:03:43.037Z,17.27
2023-03-06T05:06:09.588Z,12.70
2023-03-06T05:08:36.462Z,18.55
2023-03-06T05:11:03.253Z,18.65
2023-03-06T05:13:30.094Z,21.00
2023-03-06T05:16:04.852Z,20.92
2023-03-06T05:18:32.147Z,18.13
2023-03-06T05:20:59.918Z,18.50
2023-03-06T05:23:31.040Z,20.92
2023-03-06T05:25:58.139Z,14.63
2023-03-06T05:28:25.894Z,21.48
2023-03-06T05:30:52.532Z,20.90
2023-03-06T05:33:19.089Z,21.40
2023-03-06T05:35:47.371Z,23.65
2023-03-06T05:38:15.590Z,21.33
2023-03-06T05:40:44.007Z,11.52
2023-03-06T05:43:11.877Z,10.18
2023-03-06T05:45:39.558Z,16.52
2023-03-06T05:48:07.004Z,22.05
2023-03-06T05:50:33.552Z,23.92
2023-03-06T05:53:00.442Z,12.23
2023-03-06T05:55:26.970Z,26.52
2023-03-06T05:57:53.924Z,26.17
2023-03-06T06:00:21.300Z,13.75
2023-03-06T06:02:47.827Z,17.10
2023-03-06T06:05:14.721Z,14.05
2023-03-06T06:07:42.142Z,26.80
2023-03-06T06:10:12.204Z,27.77
2023-03-06T06:12:38.814Z,15.27
2023-03-06T06:15:06.537Z,26.83
2023-03-06T06:17:33.119Z,17.80
2023-03-06T06:19:59.645Z,10.70
2023-03-06T06:22:26.154Z,15.98
2023-03-06T06:24:52.725Z,27.70
2023-03-06T06:27:19.252Z,29.58
2023-03-06T06:29:45.804Z,27.55
2023-03-06T06:32:12.324Z,26.27
2023-03-06T06:34:38.827Z,28.83
2023-03-06T06:37:05.474Z,27.30
2023-03-06T06:39:31.969Z,28.48
2023-03-06T06:42:20.828Z,29.23
2023-03-06T06:44:45.031Z,28.92
2023-03-06T06:47:23.058Z,30.45
2023-03-06T06:49:52.672Z,29.17
2023-03-06T06:52:19.801Z,17.92
2023-03-06T06:54:46.443Z,16.83
2023-03-06T06:57:13.195Z,30.70
2023-03-06T06:59:39.751Z,30.13
2023-03-06T07:02:06.408Z,15.10
2023-03-06T07:04:33.113Z,29.10
2023-03-06T07:06:59.900Z,31.17
2023-03-06T07:09:26.548Z,28.38
2023-03-06T07:11:53.170Z,20.77
2023-03-06T07:14:19.728Z,29.52
2023-03-06T07:16:46.313Z,30.40
2023-03-06T07:19:12.876Z,19.02
2023-03-06T07:21:39.427Z,29.05
2023-03-06T07:24:06.146Z,29.65
2023-03-06T07:26:34.579Z,29.60
2023-03-06T07:29:01.710Z,29.05
2023-03-06T07:31:28.535Z,21.50
2023-03-06T07:33:55.251Z,30.15
2023-03-06T07:36:23.118Z,29.08
2023-03-06T07:38:49.832Z,30.52
2023-03-06T07:41:17.088Z,30.30
2023-03-06T07:43:45.046Z,29.83
2023-03-06T07:46:14.066Z,29.95
2023-03-06T07:48:41.728Z,31.65
2023-03-06T07:51:15.116Z,32.13
2023-03-06T07:53:41.657Z,31.27
2023-03-06T07:56:09.176Z,19.48
2023-03-06T07:58:38.002Z,31.48
2023-03-06T08:01:06.322Z,32.80
2023-03-06T08:03:33.330Z,33.95
2023-03-06T08:06:11.591Z,34.28
2023-03-06T08:08:39.887Z,33.65
2023-03-06T08:11:08.226Z,32.75
2023-03-06T08:13:35.377Z,32.88
2023-03-06T08:16:02.566Z,34.33
2023-03-06T08:18:29.291Z,13.93
2023-03-06T08:21:04.146Z,21.02
2023-03-06T08:23:30.727Z,17.83
2023-03-06T08:25:59.326Z,33.63
2023-03-06T08:28:26.116Z,35.63
2023-03-06T08:30:52.611Z,33.10
2023-03-06T08:33:19.166Z,31.73
2023-03-06T08:35:45.772Z,34.28
2023-03-06T08:38:12.392Z,34.35
2023-03-06T08:40:38.946Z,36.58
2023-03-06T08:43:05.522Z,33.97
2023-03-06T08:45:32.112Z,32.58
2023-03-06T08:47:58.669Z,34.40
2023-03-06T08:50:25.184Z,32.45
2023-03-06T08:52:51.695Z,21.50
2023-03-06T08:55:18.301Z,32.35
2023-03-06T08:57:45.778Z,32.33
2023-03-06T09:00:13.898Z,27.10
2023-03-06T09:02:40.648Z,28.77
2023-03-06T09:05:08.714Z,28.33
2023-03-06T09:07:35.588Z,25.33
2023-03-06T09:10:02.156Z,21.35
2023-03-06T09:12:30.760Z,17.52
2023-03-06T09:14:57.443Z,22.52
2023-03-06T09:17:24.094Z,21.63
2023-03-06T09:19:52.196Z,20.85
2023-03-06T09:22:18.794Z,10.48
2023-03-06T09:24:45.302Z,16.85
2023-03-06T09:27:11.827Z,17.45
2023-03-06T09:29:38.321Z,16.33
2023-03-06T09:32:05.050Z,14.43
2023-03-06T09:34:31.595Z,16.20
2023-03-06T09:36:58.078Z,13.73
2023-03-06T09:39:26.473Z,12.13
2023-03-06T09:41:53.788Z,12.05
2023-03-06T09:44:25.936Z,14.32
2023-03-06T09:47:19.992Z,13.73
2023-03-06T09:50:13.500Z,13.10
2023-03-06T09:52:52.754Z,14.02
2023-03-06T09:55:28.794Z,14.65
2023-03-06T09:58:13.257Z,12.55
2023-03-06T10:00:44.275Z,13.50
2023-03-06T10:03:44.845Z,11.20
2023-03-06T10:06:22.714Z,13.38
2023-03-06T10:08:55.286Z,16.10
2023-03-06T10:11:52.672Z,16.90
2023-03-06T10:14:31.811Z,16.10
2023-03-06T10:16:58.617Z,13.13
2023-03-06T10:19:33.416Z,15.88
2023-03-06T10:22:24.768Z,21.13
2023-03-06T10:25:16.089Z,19.97
2023-03-06T10:27:56.147Z,22.03
2023-03-06T10:31:02.665Z,21.52
2023-03-06T10:33:44.698Z,20.83
2023-03-06T10:36:15.948Z,22.27
2023-03-06T10:38:44.134Z,14.48
2023-03-06T10:41:10.628Z,23.10
2023-03-06T10:43:42.350Z,18.73
2023-03-06T10:46:14.552Z,17.15
2023-03-06T10:48:42.503Z,20.75
2023-03-06T10:51:19.043Z,18.05
2023-03-06T10:53:54.910Z,19.15
2023-03-06T10:56:34.183Z,18.25
2023-03-06T10:59:11.718Z,18.17
2023-03-06T11:01:39.994Z,15.27
2023-03-06T11:04:26.832Z,16.00
2023-03-06T11:07:17.096Z,14.88
2023-03-06T11:09:56.694Z,16.17
2023-03-06T11:12:25.865Z,14.63
2023-03-06T11:15:14.393Z,14.90
2023-03-06T11:18:04.297Z,15.50
2023-03-06T11:20:51.067Z,16.30
2023-03-06T11:23:18.312Z,16.17
2023-03-06T11:25:50.174Z,15.48
2023-03-06T11:28:25.595Z,15.98
2023-03-06T11:31:20.428Z,17.17
2023-03-06T11:33:56.379Z,16.50
2023-03-06T11:37:00.420Z,14.80
2023-03-06T11:39:41.810Z,18.70
2023-03-06T11:42:17.536Z,17.15
2023-03-06T11:44:50.111Z,14.90
2023-03-06T11:47:18.870Z,16.48
2023-03-06T11:49:50.465Z,15.05
2023-03-06T11:52:26.084Z,15.95
2023-03-06T11:54:57.671Z,17.05
2023-03-06T11:57:37.402Z,17.10
2023-03-06T12:00:16.945Z,16.55
2023-03-06T12:03:12.173Z,14.02
2023-03-06T12:05:53.342Z,13.30
2023-03-06T12:08:47.155Z,13.13
2023-03-06T12:11:22.904Z,12.70
2023-03-06T12:14:05.995Z,11.57
2023-03-06T12:16:46.115Z,11.32
2023-03-06T12:19:36.519Z,12.88
2023-03-06T12:22:20.711Z,12.02
2023-03-06T12:24:59.326Z,13.93
2023-03-06T12:27:58.163Z,11.10
2023-03-06T12:31:02.608Z,12.40
2023-03-06T12:34:06.874Z,10.30
2023-03-06T12:36:50.501Z,10.05
2023-03-06T12:39:20.646Z,10.52
2023-03-06T12:42:22.679Z,9.48
2023-03-06T12:45:27.152Z,9.98
2023-03-06T12:47:56.797Z,9.43
2023-03-06T12:50:32.835Z,9.82
2023-03-06T12:53:04.269Z,10.75
2023-03-06T12:55:40.988Z,7.45
2023-03-06T12:58:29.094Z,9.90
2023-03-06T13:01:04.224Z,10.48
2023-03-06T13:03:52.199Z,11.07
2023-03-06T13:06:49.849Z,10.75
2023-03-06T13:09:52.333Z,10.27
2023-03-06T13:12:38.354Z,9.82
2023-03-06T13:15:45.644Z,9.77
2023-03-06T13:18:24.043Z,10.32
2023-03-06T13:20:57.451Z,10.25
2023-03-06T13:23:51.510Z,10.77
2023-03-06T13:26:24.045Z,12.68
2023-03-06T13:28:54.009Z,12.88
2023-03-06T13:31:27.936Z,12.90
2023-03-06T13:33:57.107Z,13.82
2023-03-06T13:36:31.736Z,13.70
2023-03-06T13:39:08.657Z,13.10
2023-03-06T13:41:37.507Z,13.60
2023-03-06T13:44:26.091Z,12.73
2023-03-06T13:47:01.414Z,12.90
2023-03-06T13:49:29.309Z,11.77
2023-03-06T13:52:04.967Z,14.02
2023-03-06T13:55:00.556Z,14.20
2023-03-06T13:57:57.491Z,13.70
2023-03-06T14:00:52.451Z,16.48
2023-03-06T14:03:28.266Z,13.00
2023-03-06T14:05:54.962Z,13.75
2023-03-06T14:08:27.791Z,14.57
2023-03-06T14:11:27.106Z,15.15
2023-03-06T14:13:56.626Z,14.35
2023-03-06T14:16:49.370Z,14.80
2023-03-06T14:19:18.648Z,16.70
2023-03-06T14:21:45.121Z,16.52
2023-03-06T14:24:17.445Z,15.95
2023-03-06T14:26:50.152Z,16.27
2023-03-06T14:29:22.349Z,14.85
2023-03-06T14:31:51.500Z,14.77
2023-03-06T14:34:22.844Z,15.60
2023-03-06T14:36:52.678Z,14.70
2023-03-06T14:39:25.182Z,16.83
2023-03-06T14:41:51.725Z,14.32
2023-03-06T14:44:24.038Z,12.82
2023-03-06T14:47:10.806Z,14.32
2023-03-06T14:49:37.372Z,13.23
2023-03-06T14:52:04.161Z,12.95
2023-03-06T14:54:36.972Z,13.38
2023-03-06T14:57:08.226Z,12.93
2023-03-06T14:59:52.412Z,12.75
2023-03-06T15:02:25.820Z,13.85
2023-03-06T15:04:57.337Z,16.33
2023-03-06T15:07:30.250Z,14.85
2023-03-06T15:09:57.924Z,14.43
2023-03-06T15:12:24.326Z,18.77
2023-03-06T15:15:07.973Z,18.42
2023-03-06T15:17:43.770Z,19.52
2023-03-06T15:20:52.697Z,21.05
2023-03-06T15:23:33.947Z,19.27
2023-03-06T15:26:13.990Z,19.63
2023-03-06T15:28:40.613Z,19.08
2023-03-06T15:31:10.306Z,18.70
2023-03-06T15:33:37.572Z,18.30
2023-03-06T15:36:06.223Z,19.23
2023-03-06T15:38:35.834Z,18.40
2023-03-06T15:41:04.065Z,18.45
2023-03-06T15:43:40.190Z,18.92
2023-03-06T15:46:07.566Z,18.15
2023-03-06T15:48:35.386Z,18.80
2023-03-06T15:51:02.849Z,20.15
2023-03-06T15:53:29.495Z,18.92
2023-03-06T15:55:57.762Z,21.77
2023-03-06T15:58:26.773Z,19.92
2023-03-06T16:00:53.451Z,20.23
2023-03-06T16:03:20.106Z,19.45
2023-03-06T16:05:46.623Z,21.40
2023-03-06T16:08:14.933Z,19.45
2023-03-06T16:10:43.798Z,21.02
2023-03-06T16:13:15.022Z,20.92
2023-03-06T16:15:50.003Z,23.35
2023-03-06T16:18:17.377Z,22.10
2023-03-06T16:20:44.117Z,20.25
2023-03-06T16:23:10.911Z,23.00
2023-03-06T16:25:39.794Z,23.55
2023-03-06T16:28:11.540Z,20.40
2023-03-06T16:30:38.434Z,22.58
2023-03-06T16:33:05.083Z,22.00
2023-03-06T16:35:31.936Z,22.45
2023-03-06T16:37:59.815Z,22.15
2023-03-06T16:40:37.251Z,22.15
2023-03-06T16:43:05.175Z,19.52
2023-03-06T16:45:39.090Z,22.30
2023-03-06T16:48:06.647Z,23.23
2023-03-06T16:50:38.361Z,22.30
2023-03-06T16:53:05.761Z,22.50
2023-03-06T16:55:33.054Z,21.92
2023-03-06T16:57:59.695Z,23.08
2023-03-06T17:00:31.159Z,24.17
2023-03-06T17:02:57.800Z,22.85
2023-03-06T17:05:24.310Z,24.48
2023-03-06T17:07:50.843Z,26.70
2023-03-06T17:10:19.171Z,28.10
2023-03-06T17:12:45.736Z,28.88
2023-03-06T17:15:12.296Z,27.27
2023-03-06T17:17:38.944Z,28.25
2023-03-06T17:20:11.704Z,29.08
2023-03-06T17:22:38.716Z,28.27
2023-03-06T17:25:06.776Z,27.02
2023-03-06T17:27:34.473Z,28.45
2023-03-06T17:30:01.355Z,29.23
2023-03-06T17:32:28.443Z,28.95
2023-03-06T17:34:55.406Z,30.35
2023-03-06T17:37:22.022Z,29.33
2023-03-06T17:39:48.594Z,30.63
2023-03-06T17:42:15.522Z,29.50
2023-03-06T17:44:42.112Z,28.58
2023-03-06T17:47:08.676Z,30.38
2023-03-06T17:49:35.284Z,30.17
2023-03-06T17:52:03.558Z,28.08
2023-03-06T17:54:30.294Z,29.63
2023-03-06T17:57:00.865Z,29.92
2023-03-06T17:59:28.317Z,28.65
2023-03-06T18:01:58.831Z,29.77
2023-03-06T18:04:26.029Z,30.85
2023-03-06T18:06:52.750Z,28.15
2023-03-06T18:09:19.289Z,31.00
2023-03-06T18:11:45.818Z,26.38
2023-03-06T18:14:12.440Z,26.67
2023-03-06T18:16:39.019Z,25.45
2023-03-06T18:19:05.517Z,26.13
2023-03-06T18:21:32.057Z,24.40
2023-03-06T18:23:58.598Z,24.27
2023-03-06T18:26:27.548Z,25.52
2023-03-06T18:28:56.541Z,22.27
2023-03-06T18:31:25.763Z,23.25
2023-03-06T18:33:53.288Z,22.02
2023-03-06T18:36:22.364Z,22.25
2023-03-06T18:38:49.869Z,22.13
2023-03-06T18:41:18.564Z,21.92
2023-03-06T18:43:45.530Z,21.75
2023-03-06T18:46:12.029Z,22.67
2023-03-06T18:48:38.642Z,23.00
2023-03-06T18:51:07.801Z,21.63
2023-03-06T18:53:35.431Z,21.30
2023-03-06T18:56:02.443Z,22.20
2023-03-06T18:58:29.532Z,22.95
2023-03-06T19:00:58.926Z,22.70
2023-03-06T19:03:25.818Z,21.77
2023-03-06T19:05:52.405Z,24.60
2023-03-06T19:08:19.049Z,21.30
2023-03-06T19:10:46.894Z,23.15
2023-03-06T19:13:13.890Z,23.38
2023-03-06T19:15:48.534Z,24.42
2023-03-06T19:18:17.868Z,22.30
2023-03-06T19:20:45.026Z,24.50
2023-03-06T19:23:11.594Z,24.15
2023-03-06T19:25:38.096Z,25.05
2023-03-06T19:28:04.795Z,25.30
2023-03-06T19:30:31.269Z,24.95
2023-03-06T19:32:57.840Z,24.40
2023-03-06T19:35:26.179Z,26.33
2023-03-06T19:37:53.398Z,25.35
2023-03-06T19:40:20.250Z,25.92
2023-03-06T19:42:46.845Z,24.70
2023-03-06T19:45:13.489Z,24.88
2023-03-06T19:47:40.072Z,26.20
2023-03-06T19:50:07.221Z,27.33
2023-03-06T19:52:36.344Z,26.10
2023-03-06T19:55:02.907Z,25.63
2023-03-06T19:57:29.415Z,25.50
2023-03-06T19:59:58.415Z,27.42
2023-03-06T20:02:27.132Z,27.67
2023-03-06T20:04:54.433Z,25.40
2023-03-06T20:07:21.272Z,26.80
2023-03-06T20:09:48.197Z,27.33
2023-03-06T20:12:15.728Z,28.98
2023-03-06T20:14:42.575Z,27.90
2023-03-06T20:17:09.186Z,27.83
2023-03-06T20:19:36.446Z,26.35
2023-03-06T20:22:03.297Z,30.20
2023-03-06T20:24:29.833Z,28.42
2023-03-06T20:26:57.668Z,28.23
2023-03-06T20:29:27.291Z,30.42
2023-03-06T20:31:55.920Z,27.75
2023-03-06T20:34:23.474Z,29.25
2023-03-06T20:36:50.163Z,28.25
2023-03-06T20:39:18.859Z,30.55
2023-03-06T20:41:46.414Z,30.40
2023-03-06T20:44:16.144Z,30.35
2023-03-06T20:46:44.055Z,31.65
2023-03-06T20:49:12.577Z,29.73
2023-03-06T20:51:40.358Z,29.90
2023-03-06T20:54:08.475Z,29.48
2023-03-06T20:56:36.512Z,29.33
2023-03-06T20:59:03.288Z,26.90
2023-03-06T21:01:32.664Z,30.95
2023-03-06T21:04:00.436Z,29.33
2023-03-06T21:06:28.734Z,26.60
2023-03-06T21:08:56.731Z,29.88
2023-03-06T21:11:23.742Z,30.38
2023-03-06T21:13:50.477Z,26.67
2023-03-06T21:16:19.464Z,26.50
2023-03-06T21:18:46.729Z,28.85
2023-03-06T21:21:16.736Z,28.95
2023-03-06T21:23:43.291Z,29.02
2023-03-06T21:26:24.218Z,30.77
2023-03-06T21:28:51.278Z,29.58
2023-03-06T21:31:20.450Z,29.60
2023-03-06T21:33:48.600Z,29.25
2023-03-06T21:36:18.727Z,27.33
2023-03-06T21:38:46.707Z,26.60
2023-03-06T21:41:16.390Z,27.48
2023-03-06T21:43:43.387Z,25.23
2023-03-06T21:46:11.226Z,25.83
2023-03-06T21:48:37.937Z,24.98
2023-03-06T21:51:09.930Z,25.67
2023-03-06T21:53:37.075Z,25.63
2023-03-06T21:56:04.675Z,27.75
2023-03-06T21:58:31.305Z,28.00
2023-03-06T22:00:58.399Z,27.20
2023-03-06T22:03:25.514Z,27.02
2023-03-06T22:05:52.705Z,25.55
2023-03-06T22:08:24.993Z,25.00
2023-03-06T22:10:51.560Z,24.60
2023-03-06T22:13:18.127Z,22.55
2023-03-06T22:15:52.753Z,18.35
2023-03-06T22:18:20.066Z,18.80
2023-03-06T22:20:47.246Z,19.02
2023-03-06T22:23:14.281Z,17.83
2023-03-06T22:25:40.840Z,17.90
2023-03-06T22:28:07.661Z,17.15
2023-03-06T22:30:34.279Z,18.58
2023-03-06T22:33:00.833Z,16.15
2023-03-06T22:35:27.408Z,13.52
2023-03-06T22:37:53.978Z,13.60
2023-03-06T22:40:20.493Z,13.05
2023-03-06T22:42:47.169Z,13.15
2023-03-06T22:45:13.754Z,13.07
2023-03-06T22:47:40.272Z,12.68
2023-03-06T22:50:07.793Z,12.48
2023-03-06T22:52:34.359Z,12.00
2023-03-06T22:55:00.922Z,12.73
2023-03-06T22:57:27.559Z,13.38
2023-03-06T22:59:54.033Z,12.73
2023-03-06T23:02:20.539Z,14.55
2023-03-06T23:04:53.516Z,13.70
2023-03-06T23:07:21.120Z,13.77
2023-03-06T23:09:48.660Z,13.75
2023-03-06T23:12:33.827Z,13.95
2023-03-06T23:15:19.162Z,13.70
2023-03-06T23:18:04.452Z,14.20
2023-03-06T23:20:49.757Z,12.85
2023-03-06T23:23:35.863Z,12.73
2023-03-06T23:26:04.270Z,12.32
2023-03-06T23:28:31.021Z,11.98
2023-03-06T23:30:57.585Z,12.82
2023-03-06T23:33:24.442Z,12.18
2023-03-06T23:35:51.035Z,11.85
2023-03-06T23:38:17.614Z,10.60
2023-03-06T23:40:44.264Z,9.43
2023-03-06T23:43:10.818Z,9.77
2023-03-06T23:45:37.409Z,9.88
2023-03-06T23:48:07.242Z,8.75
2023-03-06T23:50:33.763Z,8.95
2023-03-06T23:53:00.251Z,8.63
2023-03-06T23:55:26.821Z,8.18
2023-03-06T23:57:53.333Z,6.80
